createdAt,value
2023-01-21T00:30:18.634Z,1013.71
2023-01-21T00:30:58.594Z,1013.79
2023-01-21T00:31:39.158Z,1013.77
2023-01-21T00:32:19.501Z,1013.76
2023-01-21T00:32:59.993Z,1013.77
2023-01-21T00:33:40.543Z,1013.8
2023-01-21T00:34:21.022Z,1013.79
2023-01-21T00:35:01.572Z,1013.82
2023-01-21T00:35:42.007Z,1013.85
2023-01-21T00:36:22.524Z,1013.85
2023-01-21T00:37:03.026Z,1013.86
2023-01-21T00:37:43.549Z,1013.86
2023-01-21T00:38:24.048Z,1013.91
2023-01-21T00:39:45.009Z,1013.92
2023-01-21T00:40:25.575Z,1013.91
2023-01-21T00:41:06.016Z,1013.91
2023-01-21T00:41:46.495Z,1013.89
2023-01-21T00:42:27.004Z,1013.88
2023-01-21T00:43:07.491Z,1013.89
2023-01-21T00:43:48.005Z,1013.88
2023-01-21T00:44:28.542Z,1013.94
2023-01-21T00:45:08.982Z,1013.92
2023-01-21T00:45:49.490Z,1013.92
2023-01-21T00:46:30.014Z,1013.92
2023-01-21T00:47:10.488Z,1013.99
2023-01-21T00:47:50.976Z,1013.97
2023-01-21T00:48:31.464Z,1013.99
2023-01-21T00:49:11.942Z,1014.02
2023-01-21T00:49:52.455Z,1013.99
2023-01-21T00:50:32.955Z,1014.02
2023-01-21T00:51:13.549Z,1014.05
2023-01-21T00:51:54.007Z,1014.03
2023-01-21T00:52:34.449Z,1014.06
2023-01-21T00:53:14.965Z,1014.08
2023-01-21T00:53:55.425Z,1014.08
2023-01-21T00:54:35.908Z,1013.84
2023-01-21T00:55:16.428Z,1014.13
2023-01-21T00:55:56.899Z,1014.12
2023-01-21T00:56:37.437Z,1014.18
2023-01-21T00:57:17.928Z,1014.16
2023-01-21T00:57:58.423Z,1014.16
2023-01-21T00:58:38.911Z,1014.22
2023-01-21T00:59:19.365Z,1014.22
2023-01-21T00:59:59.869Z,1014.27
2023-01-21T01:00:40.309Z,1014.27
2023-01-21T01:01:20.911Z,1014.25
2023-01-21T01:02:01.325Z,1014.26
2023-01-21T01:02:41.836Z,1014.25
2023-01-21T01:03:22.396Z,1014.26
2023-01-21T01:04:02.827Z,1014.34
2023-01-21T01:04:43.335Z,1014.32
2023-01-21T01:05:23.818Z,1014.31
2023-01-21T01:06:05.179Z,1014.33
2023-01-21T01:06:45.575Z,1014.33
2023-01-21T01:07:26.039Z,1014.36
2023-01-21T01:08:06.549Z,1014.38
2023-01-21T01:08:47.040Z,1014.43
2023-01-21T01:09:27.526Z,1014.39
2023-01-21T01:10:08.042Z,1014.41
2023-01-21T01:10:48.469Z,1014.39
2023-01-21T01:11:28.963Z,1014.46
2023-01-21T01:12:09.440Z,1014.5
2023-01-21T01:12:49.966Z,1014.47
2023-01-21T01:13:30.443Z,1014.48
2023-01-21T01:14:51.439Z,1014.49
2023-01-21T01:15:31.985Z,1014.51
2023-01-21T01:16:12.440Z,1014.52
2023-01-21T01:16:52.956Z,1014.55
2023-01-21T01:17:33.411Z,1014.53
2023-01-21T01:18:13.916Z,1014.54
2023-01-21T01:18:54.396Z,1014.58
2023-01-21T01:19:34.919Z,1014.58
2023-01-21T01:20:15.659Z,1014.56
2023-01-21T01:20:55.936Z,1014.6
2023-01-21T01:21:36.440Z,1014.6
2023-01-21T01:22:16.898Z,1014.62
2023-01-21T01:22:57.432Z,1014.59
2023-01-21T01:23:37.955Z,1014.59
2023-01-21T01:24:58.956Z,1014.61
2023-01-21T01:25:39.464Z,1014.61
2023-01-21T01:26:19.993Z,1014.64
2023-01-21T01:27:00.460Z,1014.61
2023-01-21T01:27:40.915Z,1014.61
2023-01-21T01:28:21.406Z,1014.63
2023-01-21T01:29:01.908Z,1014.68
2023-01-21T01:29:42.383Z,1014.67
2023-01-21T01:30:22.871Z,1014.64
2023-01-21T01:31:03.466Z,1014.69
2023-01-21T01:31:43.899Z,1014.7
2023-01-21T01:32:24.382Z,1014.72
2023-01-21T01:33:04.883Z,1014.68
2023-01-21T01:33:45.441Z,1014.68
2023-01-21T01:34:25.887Z,1014.72
2023-01-21T01:35:06.424Z,1014.76
2023-01-21T01:35:46.923Z,1014.75
2023-01-21T01:36:27.443Z,1014.78
2023-01-21T01:37:07.889Z,1014.8
2023-01-21T01:37:48.371Z,1014.79
2023-01-21T01:38:28.863Z,1014.83
2023-01-21T01:39:09.393Z,1014.83
2023-01-21T01:39:49.880Z,1014.87
2023-01-21T01:40:30.350Z,1014.86
2023-01-21T01:41:10.869Z,1014.87
2023-01-21T01:42:31.794Z,1014.89
2023-01-21T01:43:12.317Z,1014.92
2023-01-21T01:43:52.812Z,1014.94
2023-01-21T01:44:33.315Z,1014.94
2023-01-21T01:45:13.772Z,1014.97
2023-01-21T01:45:54.271Z,1015.02
2023-01-21T01:46:34.845Z,1015
2023-01-21T01:47:15.225Z,1014.97
2023-01-21T01:47:55.700Z,1014.99
2023-01-21T01:48:36.134Z,1015
2023-01-21T01:49:16.619Z,1015.01
2023-01-21T01:49:57.115Z,1015
2023-01-21T01:50:37.621Z,1015.04
2023-01-21T01:51:18.223Z,1015.02
2023-01-21T01:51:58.579Z,1015.05
2023-01-21T01:53:19.600Z,1015.07
2023-01-21T01:54:00.114Z,1015.09
2023-01-21T01:54:40.658Z,1015.08
2023-01-21T01:55:21.142Z,1015.11
2023-01-21T01:56:01.631Z,1015.1
2023-01-21T01:56:42.093Z,1015.11
2023-01-21T01:57:22.613Z,1015.13
2023-01-21T01:58:03.072Z,1015.18
2023-01-21T01:58:43.542Z,1015.14
2023-01-21T01:59:24.029Z,1015.18
2023-01-21T02:00:05.488Z,1015.15
2023-01-21T02:00:45.954Z,1015.19
2023-01-21T02:01:26.484Z,1015.19
2023-01-21T02:02:06.944Z,1015.17
2023-01-21T02:02:47.470Z,1015.17
2023-01-21T02:03:27.937Z,1015.17
2023-01-21T02:04:08.388Z,1015.18
2023-01-21T02:04:48.937Z,1015.22
2023-01-21T02:05:29.405Z,1015.21
2023-01-21T02:06:09.863Z,1015.22
2023-01-21T02:06:50.363Z,1015.21
2023-01-21T02:07:30.848Z,1015.24
2023-01-21T02:08:11.302Z,1015.25
2023-01-21T02:08:51.827Z,1015.27
2023-01-21T02:09:32.252Z,1015.31
2023-01-21T02:10:12.729Z,1015.29
2023-01-21T02:10:53.237Z,1015.28
2023-01-21T02:11:33.690Z,1015.33
2023-01-21T02:12:14.211Z,1015.34
2023-01-21T02:13:35.152Z,1015.34
2023-01-21T02:14:15.667Z,1015.32
2023-01-21T02:14:56.222Z,1015.36
2023-01-21T02:15:36.621Z,1015.41
2023-01-21T02:16:17.167Z,1015.42
2023-01-21T02:16:57.624Z,1015.42
2023-01-21T02:17:38.053Z,1015.43
2023-01-21T02:18:18.533Z,1015.43
2023-01-21T02:18:59.075Z,1015.42
2023-01-21T02:19:39.519Z,1015.44
2023-01-21T02:20:20.034Z,1015.45
2023-01-21T02:21:00.513Z,1015.51
2023-01-21T02:21:40.984Z,1015.5
2023-01-21T02:22:21.512Z,1015.48
2023-01-21T02:23:02.036Z,1015.46
2023-01-21T02:23:42.519Z,1015.48
2023-01-21T02:24:22.983Z,1015.48
2023-01-21T02:25:03.467Z,1015.49
2023-01-21T02:25:43.921Z,1015.5
2023-01-21T02:26:24.432Z,1015.46
2023-01-21T02:27:04.892Z,1015.52
2023-01-21T02:27:45.375Z,1015.51
2023-01-21T02:28:25.853Z,1015.49
2023-01-21T02:29:06.349Z,1015.51
2023-01-21T02:29:46.802Z,1015.53
2023-01-21T02:30:27.274Z,1015.52
2023-01-21T02:31:07.903Z,1015.52
2023-01-21T02:31:48.308Z,1015.52
2023-01-21T02:32:28.763Z,1015.55
2023-01-21T02:33:09.301Z,1015.55
2023-01-21T02:33:49.772Z,1015.57
2023-01-21T02:34:30.272Z,1015.57
2023-01-21T02:35:10.733Z,1015.58
2023-01-21T02:35:51.262Z,1015.57
2023-01-21T02:36:31.825Z,1015.57
2023-01-21T02:37:12.345Z,1015.59
2023-01-21T02:37:52.805Z,1015.53
2023-01-21T02:38:33.277Z,1015.62
2023-01-21T02:39:13.757Z,1015.54
2023-01-21T02:39:54.250Z,1015.57
2023-01-21T02:40:34.744Z,1015.6
2023-01-21T02:41:55.738Z,1015.61
2023-01-21T02:42:36.212Z,1015.6
2023-01-21T02:43:16.687Z,1015.64
2023-01-21T02:43:57.145Z,1015.59
2023-01-21T02:44:37.620Z,1015.61
2023-01-21T02:45:18.088Z,1015.67
2023-01-21T02:45:58.602Z,1015.63
2023-01-21T02:46:39.268Z,1015.61
2023-01-21T02:47:19.644Z,1015.72
2023-01-21T02:48:00.106Z,1015.61
2023-01-21T02:48:40.597Z,1015.61
2023-01-21T02:50:01.617Z,1015.64
2023-01-21T02:50:42.046Z,1015.67
2023-01-21T02:51:22.495Z,1015.7
2023-01-21T02:52:02.967Z,1015.72
2023-01-21T02:52:43.467Z,1015.73
2023-01-21T02:53:23.936Z,1015.7
2023-01-21T02:54:04.431Z,1015.7
2023-01-21T02:54:44.917Z,1015.74
2023-01-21T02:55:25.440Z,1015.74
2023-01-21T02:56:05.909Z,1015.74
2023-01-21T02:56:46.420Z,1015.78
2023-01-21T02:57:26.926Z,1015.75
2023-01-21T02:58:07.394Z,1015.77
2023-01-21T02:58:47.899Z,1015.77
2023-01-21T03:00:08.864Z,1015.8
2023-01-21T03:00:49.363Z,1015.8
2023-01-21T03:01:29.828Z,1015.79
2023-01-21T03:02:10.371Z,1015.82
2023-01-21T03:02:50.816Z,1015.83
2023-01-21T03:03:31.287Z,1015.83
2023-01-21T03:04:11.833Z,1015.84
2023-01-21T03:04:52.313Z,1015.82
2023-01-21T03:05:32.856Z,1015.81
2023-01-21T03:06:13.327Z,1015.85
2023-01-21T03:06:53.838Z,1015.87
2023-01-21T03:07:34.332Z,1015.86
2023-01-21T03:08:14.818Z,1015.88
2023-01-21T03:08:55.356Z,1015.89
2023-01-21T03:09:35.839Z,1015.89
2023-01-21T03:10:16.553Z,1015.87
2023-01-21T03:10:56.795Z,1015.88
2023-01-21T03:11:37.332Z,1015.91
2023-01-21T03:12:17.823Z,1015.9
2023-01-21T03:12:58.324Z,1015.87
2023-01-21T03:13:38.885Z,1015.89
2023-01-21T03:14:19.349Z,1015.86
2023-01-21T03:14:59.905Z,1015.9
2023-01-21T03:16:20.942Z,1015.86
2023-01-21T03:17:01.380Z,1015.88
2023-01-21T03:17:41.928Z,1015.92
2023-01-21T03:19:02.887Z,1015.88
2023-01-21T03:19:43.382Z,1015.87
2023-01-21T03:20:23.880Z,1015.89
2023-01-21T03:21:04.366Z,1015.86
2023-01-21T03:21:44.865Z,1015.86
2023-01-21T03:22:25.332Z,1015.93
2023-01-21T03:23:05.864Z,1015.88
2023-01-21T03:23:46.307Z,1015.91
2023-01-21T03:24:26.803Z,1015.93
2023-01-21T03:25:07.308Z,1015.93
2023-01-21T03:26:28.362Z,1016.01
2023-01-21T03:27:08.812Z,1016.04
2023-01-21T03:27:49.322Z,1016.02
2023-01-21T03:28:29.879Z,1016.04
2023-01-21T03:29:10.309Z,1016.03
2023-01-21T03:29:50.816Z,1016.07
2023-01-21T03:30:31.344Z,1016.06
2023-01-21T03:31:11.910Z,1016.12
2023-01-21T03:31:52.374Z,1016.04
2023-01-21T03:32:32.862Z,1016.07
2023-01-21T03:33:13.375Z,1016.08
2023-01-21T03:33:53.874Z,1016.12
2023-01-21T03:34:34.349Z,1016.08
2023-01-21T03:35:14.887Z,1016.06
2023-01-21T03:35:55.319Z,1016.09
2023-01-21T03:36:35.883Z,1016.08
2023-01-21T03:37:16.358Z,1016.14
2023-01-21T03:37:56.871Z,1016.15
2023-01-21T03:38:37.395Z,1016.14
2023-01-21T03:39:17.854Z,1016.16
2023-01-21T03:39:58.299Z,1016.21
2023-01-21T03:40:38.784Z,1016.15
2023-01-21T03:41:19.300Z,1016.18
2023-01-21T03:41:59.820Z,1016.17
2023-01-21T03:42:40.347Z,1016.18
2023-01-21T03:43:20.794Z,1016.2
2023-01-21T03:44:01.272Z,1016.21
2023-01-21T03:44:41.795Z,1016.22
2023-01-21T03:45:22.301Z,1016.24
2023-01-21T03:46:02.820Z,1016.26
2023-01-21T03:46:43.220Z,1016.22
2023-01-21T03:47:23.705Z,1016.22
2023-01-21T03:48:04.182Z,1016.24
2023-01-21T03:49:25.247Z,1016.26
2023-01-21T03:50:05.708Z,1016.24
2023-01-21T03:50:46.271Z,1016.27
2023-01-21T03:51:26.698Z,1016.27
2023-01-21T03:52:07.211Z,1016.29
2023-01-21T03:52:47.692Z,1016.27
2023-01-21T03:53:28.208Z,1016.31
2023-01-21T03:54:08.761Z,1016.34
2023-01-21T03:54:49.307Z,1016.3
2023-01-21T03:55:29.785Z,1016.33
2023-01-21T03:56:10.411Z,1016.34
2023-01-21T03:56:50.822Z,1016.29
2023-01-21T03:57:31.298Z,1016.31
2023-01-21T03:58:11.784Z,1016.34
2023-01-21T03:58:52.379Z,1016.34
2023-01-21T03:59:32.780Z,1016.34
2023-01-21T04:00:13.313Z,1016.36
2023-01-21T04:00:53.827Z,1016.36
2023-01-21T04:01:34.381Z,1016.39
2023-01-21T04:02:14.835Z,1016.37
2023-01-21T04:02:55.321Z,1016.39
2023-01-21T04:03:35.835Z,1016.39
2023-01-21T04:04:16.311Z,1016.36
2023-01-21T04:04:56.791Z,1016.36
2023-01-21T04:05:37.287Z,1016.4
2023-01-21T04:06:17.800Z,1016.4
2023-01-21T04:06:58.298Z,1016.39
2023-01-21T04:07:38.770Z,1016.4
2023-01-21T04:08:19.232Z,1016.41
2023-01-21T04:09:40.192Z,1016.42
2023-01-21T04:10:20.675Z,1016.46
2023-01-21T04:11:01.203Z,1016.43
2023-01-21T04:11:41.652Z,1016.49
2023-01-21T04:12:22.165Z,1016.49
2023-01-21T04:13:02.650Z,1016.49
2023-01-21T04:13:43.139Z,1016.52
2023-01-21T04:14:23.636Z,1016.53
2023-01-21T04:15:05.522Z,1016.52
2023-01-21T04:15:44.668Z,1016.52
2023-01-21T04:17:05.628Z,1016.51
2023-01-21T04:17:46.098Z,1016.54
2023-01-21T04:18:26.629Z,1016.53
2023-01-21T04:19:07.102Z,1016.56
2023-01-21T04:19:47.587Z,1016.58
2023-01-21T04:20:28.114Z,1016.55
2023-01-21T04:21:08.635Z,1016.58
2023-01-21T04:21:49.193Z,1016.58
2023-01-21T04:22:29.685Z,1016.6
2023-01-21T04:23:10.210Z,1016.57
2023-01-21T04:23:50.666Z,1016.59
2023-01-21T04:24:32.544Z,1016.6
2023-01-21T04:25:11.674Z,1016.6
2023-01-21T04:25:52.144Z,1016.6
2023-01-21T04:26:32.629Z,1016.56
2023-01-21T04:27:13.197Z,1016.61
2023-01-21T04:27:53.619Z,1016.57
2023-01-21T04:28:34.161Z,1016.62
2023-01-21T04:29:14.633Z,1016.62
2023-01-21T04:29:55.094Z,1016.65
2023-01-21T04:30:35.638Z,1016.63
2023-01-21T04:31:16.103Z,1016.63
2023-01-21T04:31:56.642Z,1016.62
2023-01-21T04:32:37.119Z,1016.62
2023-01-21T04:33:17.562Z,1016.63
2023-01-21T04:33:58.073Z,1016.62
2023-01-21T04:34:38.546Z,1016.65
2023-01-21T04:35:19.045Z,1016.62
2023-01-21T04:35:59.539Z,1016.63
2023-01-21T04:36:40.032Z,1016.66
2023-01-21T04:37:21.370Z,1016.64
2023-01-21T04:38:01.874Z,1016.65
2023-01-21T04:38:42.371Z,1016.65
2023-01-21T04:39:22.819Z,1016.65
2023-01-21T04:40:03.311Z,1016.65
2023-01-21T04:40:43.789Z,1016.62
2023-01-21T04:42:04.733Z,1016.65
2023-01-21T04:42:45.239Z,1016.65
2023-01-21T04:43:25.784Z,1016.67
2023-01-21T04:44:06.282Z,1016.67
2023-01-21T04:44:46.788Z,1016.71
2023-01-21T04:45:27.264Z,1016.68
2023-01-21T04:46:07.834Z,1016.72
2023-01-21T04:46:48.233Z,1016.72
2023-01-21T04:47:28.727Z,1016.71
2023-01-21T04:48:09.205Z,1016.74
2023-01-21T04:48:49.714Z,1016.75
2023-01-21T04:49:30.217Z,1016.73
2023-01-21T04:50:10.700Z,1016.73
2023-01-21T04:50:51.183Z,1016.74
2023-01-21T04:52:12.143Z,1016.72
2023-01-21T04:52:52.620Z,1016.7
2023-01-21T04:53:33.094Z,1016.72
2023-01-21T04:54:13.603Z,1016.7
2023-01-21T04:54:54.037Z,1016.7
2023-01-21T04:55:34.527Z,1016.7
2023-01-21T04:56:14.998Z,1016.7
2023-01-21T04:56:55.546Z,1016.72
2023-01-21T04:57:36.015Z,1016.74
2023-01-21T04:58:16.492Z,1016.77
2023-01-21T04:58:56.968Z,1016.76
2023-01-21T04:59:37.498Z,1016.77
2023-01-21T05:00:18.250Z,1016.74
2023-01-21T05:00:58.485Z,1016.81
2023-01-21T05:01:38.968Z,1016.79
2023-01-21T05:02:19.539Z,1016.81
2023-01-21T05:03:00.008Z,1016.85
2023-01-21T05:03:40.515Z,1016.86
2023-01-21T05:04:20.964Z,1016.83
2023-01-21T05:05:01.440Z,1016.84
2023-01-21T05:05:41.930Z,1016.83
2023-01-21T05:06:22.406Z,1016.83
2023-01-21T05:07:02.913Z,1016.87
2023-01-21T05:07:43.370Z,1016.85
2023-01-21T05:08:23.826Z,1016.84
2023-01-21T05:09:05.297Z,1016.89
2023-01-21T05:09:44.846Z,1016.87
2023-01-21T05:10:25.301Z,1016.87
2023-01-21T05:11:05.789Z,1016.91
2023-01-21T05:11:46.358Z,1016.89
2023-01-21T05:12:26.905Z,1016.94
2023-01-21T05:13:07.357Z,1016.91
2023-01-21T05:13:47.896Z,1016.97
2023-01-21T05:14:28.385Z,1016.99
2023-01-21T05:15:08.888Z,1016.97
2023-01-21T05:15:49.423Z,1017.02
2023-01-21T05:16:29.941Z,1017.03
2023-01-21T05:17:10.390Z,1017.08
2023-01-21T05:17:50.879Z,1017.08
2023-01-21T05:18:31.372Z,1017.04
2023-01-21T05:19:52.359Z,1017.06
2023-01-21T05:20:32.873Z,1017.1
2023-01-21T05:21:13.385Z,1017.13
2023-01-21T05:21:53.801Z,1017.12
2023-01-21T05:22:34.264Z,1017.13
2023-01-21T05:23:14.752Z,1017.16
2023-01-21T05:23:55.235Z,1017.21
2023-01-21T05:24:35.745Z,1017.2
2023-01-21T05:25:16.262Z,1017.21
2023-01-21T05:25:56.740Z,1017.18
2023-01-21T05:27:17.708Z,1017.23
2023-01-21T05:27:58.203Z,1017.2
2023-01-21T05:28:38.679Z,1017.19
2023-01-21T05:29:19.167Z,1017.2
2023-01-21T05:29:59.643Z,1017.22
2023-01-21T05:30:41.367Z,1017.21
2023-01-21T05:31:20.739Z,1017.27
2023-01-21T05:32:01.247Z,1017.29
2023-01-21T05:32:41.679Z,1017.26
2023-01-21T05:33:22.171Z,1017.27
2023-01-21T05:34:02.669Z,1017.31
2023-01-21T05:34:43.108Z,1017.31
2023-01-21T05:35:23.599Z,1017.29
2023-01-21T05:36:04.060Z,1017.35
2023-01-21T05:36:44.589Z,1017.36
2023-01-21T05:37:25.621Z,1017.34
2023-01-21T05:38:06.111Z,1017.32
2023-01-21T05:38:46.647Z,1017.34
2023-01-21T05:39:27.104Z,1017.36
2023-01-21T05:40:07.595Z,1017.38
2023-01-21T05:40:48.095Z,1017.39
2023-01-21T05:41:28.546Z,1017.42
2023-01-21T05:42:09.012Z,1017.42
2023-01-21T05:42:49.514Z,1017.4
2023-01-21T05:43:30.027Z,1017.42
2023-01-21T05:44:10.521Z,1017.44
2023-01-21T05:44:50.994Z,1017.47
2023-01-21T05:45:31.493Z,1017.46
2023-01-21T05:47:44.193Z,1017.46
2023-01-21T05:48:25.699Z,1017.48
2023-01-21T05:49:06.138Z,1017.53
2023-01-21T05:49:46.605Z,1017.51
2023-01-21T05:50:27.083Z,1017.51
2023-01-21T05:51:07.628Z,1017.55
2023-01-21T05:51:48.065Z,1017.55
2023-01-21T05:52:28.550Z,1017.52
2023-01-21T06:32:00.607Z,1017.93
2023-01-21T06:32:41.055Z,1017.93
2023-01-21T06:33:21.502Z,1017.96
2023-01-21T06:34:01.976Z,1017.96
2023-01-21T06:34:43.088Z,1017.99
2023-01-21T06:35:22.927Z,1018.02
2023-01-21T06:36:03.440Z,1017.98
2023-01-21T06:36:43.919Z,1017.99
2023-01-21T06:37:24.422Z,1018.02
2023-01-21T06:38:04.945Z,1018.03
2023-01-21T06:38:45.413Z,1018.03
2023-01-21T06:39:25.882Z,1018.02
2023-01-21T06:40:06.450Z,1018.01
2023-01-21T06:40:46.952Z,1018.03
2023-01-21T06:41:27.431Z,1018.08
2023-01-21T06:42:07.920Z,1018.09
2023-01-21T06:42:48.375Z,1018.11
2023-01-21T06:43:28.866Z,1018.13
2023-01-21T06:44:09.393Z,1018.15
2023-01-21T06:44:49.913Z,1018.16
2023-01-21T06:45:30.386Z,1018.18
2023-01-21T06:46:10.976Z,1018.19
2023-01-21T06:47:00.553Z,1018.21
2023-01-21T06:47:31.983Z,1018.23
2023-01-21T06:48:52.929Z,1018.23
2023-01-21T06:49:33.448Z,1018.19
2023-01-21T06:50:14.016Z,1018.25
2023-01-21T06:50:54.497Z,1018.18
2023-01-21T06:51:35.022Z,1018.22
2023-01-21T06:52:15.501Z,1018.26
2023-01-21T06:52:56.017Z,1018.23
2023-01-21T06:53:36.487Z,1018.22
2023-01-21T06:54:16.985Z,1018.23
2023-01-21T06:54:57.475Z,1018.21
2023-01-21T06:55:38.047Z,1018.25
2023-01-21T06:56:18.497Z,1018.24
2023-01-21T06:56:59.038Z,1018.24
2023-01-21T06:57:39.538Z,1018.25
2023-01-21T06:58:20.004Z,1018.24
2023-01-21T06:59:00.494Z,1018.26
2023-01-21T06:59:41.010Z,1018.29
2023-01-21T07:00:21.483Z,1018.26
2023-01-21T07:01:01.984Z,1018.24
2023-01-21T07:01:42.609Z,1018.29
2023-01-21T07:02:23.062Z,1018.27
2023-01-21T07:03:03.532Z,1018.31
2023-01-21T07:03:43.913Z,1018.32
2023-01-21T07:04:24.408Z,1018.33
2023-01-21T07:05:04.920Z,1018.32
2023-01-21T07:05:45.374Z,1018.3
2023-01-21T07:06:25.873Z,1018.29
2023-01-21T07:07:06.352Z,1018.3
2023-01-21T07:07:46.846Z,1018.32
2023-01-21T07:08:27.354Z,1018.4
2023-01-21T07:09:07.793Z,1018.4
2023-01-21T07:09:48.302Z,1018.41
2023-01-21T07:10:28.795Z,1018.41
2023-01-21T07:11:09.283Z,1018.44
2023-01-21T07:11:49.798Z,1018.49
2023-01-21T07:12:30.261Z,1018.5
2023-01-21T07:13:10.759Z,1018.48
2023-01-21T07:13:51.264Z,1018.54
2023-01-21T07:14:31.738Z,1018.57
2023-01-21T07:15:12.232Z,1018.54
2023-01-21T07:15:52.742Z,1018.53
2023-01-21T07:16:33.258Z,1018.62
2023-01-21T07:17:13.734Z,1018.57
2023-01-21T07:17:54.207Z,1018.6
2023-01-21T07:19:15.124Z,1018.62
2023-01-21T07:19:55.621Z,1018.61
2023-01-21T07:20:36.123Z,1018.62
2023-01-21T07:21:16.630Z,1018.64
2023-01-21T07:21:57.115Z,1018.66
2023-01-21T07:22:37.587Z,1018.34
2023-01-21T07:23:18.127Z,1018.68
2023-01-21T07:23:58.556Z,1018.67
2023-01-21T07:24:39.102Z,1018.66
2023-01-21T07:25:19.708Z,1018.67
2023-01-21T07:26:40.550Z,1018.74
2023-01-21T07:27:20.999Z,1018.78
2023-01-21T07:28:01.505Z,1018.76
2023-01-21T07:28:42.004Z,1018.77
2023-01-21T07:29:22.449Z,1018.81
2023-01-21T07:30:02.960Z,1018.8
2023-01-21T07:30:43.498Z,1018.85
2023-01-21T07:31:24.065Z,1018.81
2023-01-21T07:32:04.529Z,1018.83
2023-01-21T07:32:44.974Z,1018.87
2023-01-21T07:33:25.461Z,1018.85
2023-01-21T07:34:05.937Z,1018.87
2023-01-21T07:34:46.440Z,1018.89
2023-01-21T07:35:26.909Z,1018.9
2023-01-21T07:36:07.367Z,1018.95
2023-01-21T07:36:47.840Z,1018.91
2023-01-21T07:37:28.351Z,1018.9
2023-01-21T07:38:09.563Z,1018.93
2023-01-21T07:38:50.112Z,1018.91
2023-01-21T07:39:30.517Z,1018.92
2023-01-21T07:40:11.010Z,1018.9
2023-01-21T07:40:51.644Z,1018.91
2023-01-21T07:41:32.120Z,1018.95
2023-01-21T07:42:12.620Z,1018.95
2023-01-21T07:42:53.109Z,1018.95
2023-01-21T07:44:14.066Z,1018.97
2023-01-21T07:44:54.553Z,1018.97
2023-01-21T07:45:35.034Z,1019.01
2023-01-21T07:46:15.571Z,1019.02
2023-01-21T07:46:56.036Z,1019
2023-01-21T07:47:36.499Z,1019.03
2023-01-21T07:48:17.037Z,1019.05
2023-01-21T07:48:57.468Z,1019.02
2023-01-21T07:49:37.998Z,1019.06
2023-01-21T07:50:18.471Z,1019.04
2023-01-21T07:50:59.036Z,1019.05
2023-01-21T07:51:39.458Z,1019.04
2023-01-21T07:52:19.952Z,1019.03
2023-01-21T07:53:00.465Z,1019.03
2023-01-21T07:54:21.500Z,1019.06
2023-01-21T07:55:02.017Z,1019.12
2023-01-21T07:55:42.499Z,1019.09
2023-01-21T07:56:22.959Z,1019.13
2023-01-21T07:57:03.463Z,1019.08
2023-01-21T07:57:43.907Z,1019.1
2023-01-21T07:58:24.394Z,1019.14
2023-01-21T07:59:04.863Z,1019.15
2023-01-21T07:59:45.386Z,1019.19
2023-01-21T08:00:25.900Z,1019.16
2023-01-21T08:01:06.335Z,1019.16
2023-01-21T08:01:46.931Z,1019.15
2023-01-21T08:02:27.428Z,1019.17
2023-01-21T08:03:07.772Z,1019.19
2023-01-21T08:03:48.270Z,1019.15
2023-01-21T08:04:28.771Z,1019.16
2023-01-21T08:05:09.299Z,1019.19
2023-01-21T08:05:49.755Z,1019.21
2023-01-21T08:06:30.303Z,1019.22
2023-01-21T08:07:13.152Z,1019.18
2023-01-21T08:07:51.248Z,1019.18
2023-01-21T08:08:31.746Z,1019.2
2023-01-21T08:09:12.270Z,1019.2
2023-01-21T08:09:52.732Z,1019.22
2023-01-21T08:10:33.240Z,1019.25
2023-01-21T08:11:13.726Z,1019.25
2023-01-21T08:11:54.243Z,1019.22
2023-01-21T08:12:34.692Z,1019.26
2023-01-21T08:13:15.182Z,1019.23
2023-01-21T08:13:55.702Z,1019.2
2023-01-21T08:14:36.164Z,1019.28
2023-01-21T08:15:17.004Z,1019.3
2023-01-21T08:15:57.270Z,1019.24
2023-01-21T08:16:37.766Z,1019.3
2023-01-21T08:17:18.166Z,1019.3
2023-01-21T08:17:58.631Z,1019.34
2023-01-21T08:18:39.159Z,1019.36
2023-01-21T08:19:19.678Z,1019.37
2023-01-21T08:20:00.184Z,1019.35
2023-01-21T08:20:40.675Z,1019.39
2023-01-21T08:21:21.161Z,1019.37
2023-01-21T08:22:01.648Z,1019.41
2023-01-21T08:22:42.130Z,1019.29
2023-01-21T08:23:22.608Z,1019.34
2023-01-21T08:24:03.172Z,1019.39
2023-01-21T08:24:43.640Z,1019.36
2023-01-21T08:25:24.161Z,1019.38
2023-01-21T08:26:04.667Z,1019.39
2023-01-21T08:26:45.154Z,1019.39
2023-01-21T08:27:25.642Z,1019.4
2023-01-21T08:28:06.184Z,1019.39
2023-01-21T08:28:46.702Z,1019.47
2023-01-21T08:29:27.215Z,1019.44
2023-01-21T08:30:07.712Z,1019.49
2023-01-21T08:30:48.251Z,1019.5
2023-01-21T08:31:28.703Z,1019.5
2023-01-21T08:32:09.168Z,1019.48
2023-01-21T08:32:49.662Z,1019.46
2023-01-21T08:33:30.149Z,1019.45
2023-01-21T08:34:10.618Z,1019.38
2023-01-21T08:34:51.133Z,1019.43
2023-01-21T08:35:31.619Z,1019.42
2023-01-21T08:36:12.159Z,1019.45
2023-01-21T08:36:52.622Z,1019.43
2023-01-21T08:37:33.111Z,1019.47
2023-01-21T08:38:13.651Z,1019.45
2023-01-21T08:38:54.119Z,1019.45
2023-01-21T08:39:34.608Z,1019.41
2023-01-21T08:40:15.125Z,1019.49
2023-01-21T08:40:55.592Z,1019.49
2023-01-21T08:41:36.090Z,1019.46
2023-01-21T08:42:16.609Z,1019.51
2023-01-21T08:42:57.123Z,1019.5
2023-01-21T08:43:37.582Z,1019.54
2023-01-21T08:44:18.064Z,1019.57
2023-01-21T08:44:58.576Z,1019.57
2023-01-21T08:45:39.112Z,1019.61
2023-01-21T08:46:19.610Z,1019.63
2023-01-21T08:47:00.150Z,1019.65
2023-01-21T08:47:40.674Z,1019.62
2023-01-21T08:48:21.129Z,1019.63
2023-01-21T08:49:42.108Z,1019.71
2023-01-21T08:50:22.648Z,1019.7
2023-01-21T08:51:03.108Z,1019.7
2023-01-21T08:51:43.628Z,1019.75
2023-01-21T08:52:24.087Z,1019.75
2023-01-21T08:53:04.593Z,1019.76
2023-01-21T08:53:45.095Z,1019.75
2023-01-21T08:54:25.599Z,1019.71
2023-01-21T08:55:06.064Z,1019.78
2023-01-21T08:55:46.565Z,1019.73
2023-01-21T08:56:27.053Z,1019.7
2023-01-21T08:57:07.546Z,1019.76
2023-01-21T08:57:48.020Z,1019.78
2023-01-21T08:58:28.517Z,1019.81
2023-01-21T08:59:08.986Z,1019.87
2023-01-21T08:59:49.486Z,1019.87
2023-01-21T09:00:29.985Z,1019.86
2023-01-21T09:01:10.502Z,1019.86
2023-01-21T09:01:51.031Z,1019.85
2023-01-21T09:02:31.510Z,1019.89
2023-01-21T09:03:11.976Z,1019.91
2023-01-21T09:03:52.447Z,1019.94
2023-01-21T09:04:32.946Z,1019.93
2023-01-21T09:05:13.489Z,1019.89
2023-01-21T09:05:53.924Z,1019.91
2023-01-21T09:06:34.388Z,1019.93
2023-01-21T09:07:14.880Z,1019.99
2023-01-21T09:07:57.927Z,1019.95
2023-01-21T09:08:36.602Z,1019.95
2023-01-21T09:09:16.365Z,1020.01
2023-01-21T09:09:56.830Z,1019.98
2023-01-21T09:10:38.143Z,1020.01
2023-01-21T09:11:17.940Z,1020.01
2023-01-21T09:11:58.423Z,1020.05
2023-01-21T09:12:38.937Z,1020.04
2023-01-21T09:13:19.483Z,1020.04
2023-01-21T09:14:00.032Z,1020.07
2023-01-21T09:14:40.552Z,1020.04
2023-01-21T09:15:21.092Z,1020.09
2023-01-21T09:16:01.616Z,1020.11
2023-01-21T09:17:22.577Z,1020.07
2023-01-21T09:19:35.287Z,1020.09
2023-01-21T09:20:15.831Z,1020.08
2023-01-21T09:20:56.630Z,1020.16
2023-01-21T09:21:37.013Z,1020.12
2023-01-21T09:22:17.365Z,1020.13
2023-01-21T09:22:57.854Z,1020.1
2023-01-21T09:25:10.569Z,1020.14
2023-01-21T09:25:51.051Z,1020.18
2023-01-21T09:26:31.591Z,1020.2
2023-01-21T09:27:12.067Z,1020.17
2023-01-21T09:27:52.621Z,1020.2
2023-01-21T09:28:33.092Z,1020.21
2023-01-21T09:29:13.776Z,1020.22
2023-01-21T09:32:47.584Z,1020.31
2023-01-21T09:33:28.316Z,1020.32
2023-01-21T09:34:08.815Z,1020.34
2023-01-21T09:34:49.308Z,1020.36
2023-01-21T09:35:29.781Z,1020.35
2023-01-21T09:36:10.288Z,1020.38
2023-01-21T09:36:50.912Z,1020.39
2023-01-21T09:37:31.400Z,1020.4
2023-01-21T09:38:11.948Z,1020.47
2023-01-21T09:38:52.467Z,1020.45
2023-01-21T09:39:32.962Z,1020.47
2023-01-21T09:40:13.462Z,1020.45
2023-01-21T09:40:53.953Z,1020.48
2023-01-21T09:41:34.448Z,1020.53
2023-01-21T09:42:14.906Z,1020.49
2023-01-21T09:42:55.416Z,1020.49
2023-01-21T09:43:35.916Z,1020.54
2023-01-21T09:44:16.389Z,1020.55
2023-01-21T09:45:37.483Z,1020.59
2023-01-21T09:46:18.012Z,1020.54